Ana Sayfa
METAR-TAF:

METAR-TAF

Havaalanları :

Scottsbluff, Nebraska, Amerika Birleşik Devletleri

Enlem: 41-52-01N, Boylam: 103-35-09W, yükseklik: 1208 m

Güncel hava durumu gözlemi

Rapor saat 21:53 UTC de 40 dakika önce yapıldı.
Rüzgar güneydoğudan 11 kt
Sıcaklık 36°C
Nem 22%
Basınç 1018 hPa
Görüş mesafesi: 16.1 km
Açık gökyüzü

METAR: KBFF 032153Z AUTO 14011KT 10SM CLR 36/11 A3006 RMK AO2 SLP122 T03560111

Saat: 16:33 (22:33 UTC)

Tahmin

Rapor saat 20:19 UTC de 2 saat ve 14 dakika önce yapıldı.
Ayın 03'si saat 20 UTC'den ayın 04'si saat 18 UTC'ye kadar geçerli Tahmin
Rüzgar güney/güneydoğudan 11 kt
Görüş mesafesi: 10 km
Açık gökyüzü
Ayın 04'si saat 0100 UTC'den
Rüzgar güneydoğudan 14 kt
Görüş mesafesi: 10 km
25000 ft yükseklikte parçalı bulutlu

TAF: KBFF 032019Z 0320/0418 16011KT P6SM SKC FM040100 14014KT P6SM SCT250

4.000'den fazla havaalanı için hava durumu gözlemleri ve tahminleri (METAR ve TAF raporları).

Kullanılabilir istasyonlar harita üzerinde sarı ve kırmızı noktalarla gösterilir.

İstasyonun adını görmek için fareyi noktanın üzerinde gezdirin.

Sonrasında hava gözlem ve tahminlerini görmek için tıklayın.

Haritayı değiştirmek için: yaklaştırmak için siyah artı işaretli yeşil düğmeye ve uzaklaştırmak için de eksi işaretli düğmeye hızla tıklayın; bitişik haritalar için yeşil okları kullanın.


METAR-TAF: